createdAt,value
2022-12-05T00:01:39.432Z,98782.72
2022-12-05T00:04:09.887Z,98783.50
2022-12-05T00:06:40.249Z,98779.19
2022-12-05T00:09:10.372Z,98785.47
2022-12-05T00:11:42.775Z,98779.03
2022-12-05T00:14:11.797Z,98774.97
2022-12-05T00:16:42.010Z,98781.41
2022-12-05T00:19:12.264Z,98779.31
2022-12-05T00:21:40.324Z,98782.31
2022-12-05T00:24:10.662Z,98785.47
2022-12-05T00:26:39.993Z,98763.84
2022-12-05T00:29:08.028Z,98775.19
2022-12-05T00:31:36.364Z,98766.91
2022-12-05T00:34:04.942Z,98777.41
2022-12-05T00:36:35.401Z,98778.81
2022-12-05T00:39:07.005Z,98783.28
2022-12-05T00:41:34.912Z,98776.38
2022-12-05T00:44:05.418Z,98764.69
2022-12-05T00:46:34.565Z,98752.84
2022-12-05T00:49:04.114Z,98765.34
2022-12-05T00:51:34.505Z,98759.22
2022-12-05T00:54:05.470Z,98752.28
2022-12-05T00:56:34.160Z,98758.31
2022-12-05T00:59:04.547Z,98760.06
2022-12-05T01:01:34.150Z,98756.56
2022-12-05T01:04:06.080Z,98759.16
2022-12-05T01:06:34.212Z,98755.09
2022-12-05T01:09:02.936Z,98752.44
2022-12-05T01:11:33.066Z,98747.88
2022-12-05T01:14:04.571Z,98750.00
2022-12-05T01:16:34.564Z,98748.81
2022-12-05T01:19:05.405Z,98742.59
2022-12-05T01:21:33.682Z,98729.28
2022-12-05T01:24:01.910Z,98735.13
2022-12-05T01:26:29.953Z,98730.97
2022-12-05T01:28:58.077Z,98722.22
2022-12-05T01:31:29.489Z,98717.94
2022-12-05T01:33:59.693Z,98710.50
2022-12-05T01:36:28.762Z,98712.78
2022-12-05T01:38:57.611Z,98711.94
2022-12-05T01:41:28.602Z,98725.03
2022-12-05T01:44:00.285Z,98726.50
2022-12-05T01:46:31.560Z,98715.50
2022-12-05T01:49:04.331Z,98710.34
2022-12-05T01:51:34.819Z,98704.47
2022-12-05T01:54:03.668Z,98699.00
2022-12-05T01:56:33.864Z,98695.88
2022-12-05T01:59:05.320Z,98706.97
2022-12-05T02:01:35.198Z,98721.88
2022-12-05T02:04:03.587Z,98720.97
2022-12-05T02:06:33.214Z,98720.56
2022-12-05T02:09:29.988Z,98720.25
2022-12-05T02:12:02.032Z,98716.41
2022-12-05T02:14:36.831Z,98720.53
2022-12-05T02:17:11.717Z,98722.44
2022-12-05T02:19:53.970Z,98721.59
2022-12-05T02:22:39.317Z,98718.66
2022-12-05T02:29:31.731Z,98714.88
2022-12-05T02:32:08.475Z,98705.88
2022-12-05T02:34:42.778Z,98703.34
2022-12-05T02:37:17.096Z,98708.38
2022-12-05T02:39:48.520Z,98702.97
2022-12-05T02:42:22.873Z,98700.63
2022-12-05T02:44:55.717Z,98699.81
2022-12-05T02:47:29.416Z,98693.72
2022-12-05T02:49:58.727Z,98700.25
2022-12-05T02:52:28.751Z,98704.38
2022-12-05T02:54:57.133Z,98699.91
2022-12-05T02:57:25.303Z,98709.41
2022-12-05T02:59:53.215Z,98706.66
2022-12-05T03:02:28.146Z,98715.63
2022-12-05T03:05:00.169Z,98704.31
2022-12-05T03:07:30.771Z,98710.31
2022-12-05T03:10:03.526Z,98704.78
2022-12-05T03:12:34.957Z,98711.38
2022-12-05T03:15:07.525Z,98710.88
2022-12-05T03:17:40.718Z,98713.59
2022-12-05T03:20:14.295Z,98709.78
2022-12-05T03:22:49.753Z,98714.94
2022-12-05T03:25:18.732Z,98709.19
2022-12-05T03:27:51.657Z,98711.53
2022-12-05T03:30:21.816Z,98709.75
2022-12-05T03:32:58.929Z,98706.19
2022-12-05T03:35:36.663Z,98702.25
2022-12-05T03:38:10.619Z,98697.72
2022-12-05T03:40:43.670Z,98683.97
2022-12-05T03:43:18.170Z,98693.03
2022-12-05T03:45:50.900Z,98699.19
2022-12-05T03:48:28.154Z,98694.59
2022-12-05T03:50:58.842Z,98693.78
2022-12-05T03:53:30.721Z,98696.25
2022-12-05T03:56:03.362Z,98701.88
2022-12-05T03:58:38.284Z,98689.81
2022-12-05T04:01:08.917Z,98700.66
2022-12-05T04:03:45.136Z,98712.09
2022-12-05T04:06:24.216Z,98720.78
2022-12-05T04:08:56.027Z,98723.28
2022-12-05T04:11:27.638Z,98724.66
2022-12-05T04:14:00.010Z,98734.00
2022-12-05T04:16:50.261Z,98730.84
2022-12-05T04:19:26.662Z,98728.78
2022-12-05T04:21:56.878Z,98726.38
2022-12-05T04:24:47.921Z,98737.25
2022-12-05T04:27:24.132Z,98724.69
2022-12-05T04:30:01.264Z,98725.22
2022-12-05T04:32:36.129Z,98718.16
2022-12-05T04:35:12.902Z,98720.56
2022-12-05T04:37:45.755Z,98714.47
2022-12-05T04:40:19.032Z,98713.50
2022-12-05T04:42:48.670Z,98718.16
2022-12-05T04:45:20.439Z,98707.69
2022-12-05T04:47:52.659Z,98726.63
2022-12-05T04:50:24.201Z,98710.31
2022-12-05T04:52:56.430Z,98706.56
2022-12-05T04:55:28.118Z,98708.63
2022-12-05T04:58:05.725Z,98705.53
2022-12-05T05:00:39.282Z,98699.81
2022-12-05T05:03:13.239Z,98699.22
2022-12-05T05:05:48.068Z,98683.63
2022-12-05T05:08:26.008Z,98695.03
2022-12-05T05:11:14.716Z,98697.75
2022-12-05T05:13:42.915Z,98699.59
2022-12-05T05:16:18.227Z,98701.19
2022-12-05T05:18:47.037Z,98701.88
2022-12-05T05:21:21.866Z,98689.00
2022-12-05T05:23:49.773Z,98697.03
2022-12-05T05:26:18.833Z,98693.25
2022-12-05T05:28:47.352Z,98684.63
2022-12-05T05:31:16.082Z,98679.03
2022-12-05T05:33:44.059Z,98664.88
2022-12-05T05:36:14.607Z,98674.00
2022-12-05T05:38:49.430Z,98672.75
2022-12-05T05:41:19.876Z,98673.38
2022-12-05T05:43:48.573Z,98673.06
2022-12-05T05:46:19.423Z,98671.94
2022-12-05T05:48:47.551Z,98671.09
2022-12-05T05:51:17.592Z,98680.03
2022-12-05T05:53:47.026Z,98673.31
2022-12-05T05:56:21.156Z,98677.72
2022-12-05T05:58:50.291Z,98674.56
2022-12-05T06:01:21.362Z,98677.56
2022-12-05T06:03:50.849Z,98680.81
2022-12-05T06:06:20.071Z,98690.94
2022-12-05T06:08:49.711Z,98699.75
2022-12-05T06:11:25.486Z,98690.28
2022-12-05T06:13:54.142Z,98694.16
2022-12-05T06:16:22.478Z,98692.38
2022-12-05T06:18:51.135Z,98695.34
2022-12-05T06:21:19.112Z,98688.75
2022-12-05T06:23:47.142Z,98698.06
2022-12-05T06:26:20.735Z,98697.25
2022-12-05T06:28:49.319Z,98696.97
2022-12-05T06:31:19.082Z,98703.75
2022-12-05T06:33:47.644Z,98697.31
2022-12-05T06:36:18.029Z,98691.94
2022-12-05T06:38:46.087Z,98696.13
2022-12-05T06:41:18.692Z,98697.50
2022-12-05T06:43:47.459Z,98693.56
2022-12-05T06:46:16.581Z,98701.31
2022-12-05T06:48:44.591Z,98710.69
2022-12-05T06:51:13.793Z,98712.44
2022-12-05T06:53:41.791Z,98708.72
2022-12-05T06:56:12.784Z,98700.56
2022-12-05T06:58:42.455Z,98705.28
2022-12-05T07:01:30.776Z,98713.84
2022-12-05T07:03:59.173Z,98708.44
2022-12-05T07:06:27.635Z,98701.66
2022-12-05T07:08:56.060Z,98702.56
2022-12-05T07:11:24.086Z,98703.69
2022-12-05T07:13:53.807Z,98695.91
2022-12-05T07:16:21.828Z,98696.59
2022-12-05T07:18:50.317Z,98693.59
2022-12-05T07:21:20.329Z,98693.72
2022-12-05T07:23:50.261Z,98697.47
2022-12-05T07:26:20.748Z,98695.72
2022-12-05T07:28:49.207Z,98702.56
2022-12-05T07:31:20.717Z,98705.09
2022-12-05T07:33:48.876Z,98699.75
2022-12-05T07:36:19.368Z,98703.00
2022-12-05T07:38:47.753Z,98696.53
2022-12-05T07:41:20.794Z,98693.34
2022-12-05T07:43:48.801Z,98696.53
2022-12-05T07:46:18.295Z,98695.97
2022-12-05T07:48:46.945Z,98692.91
2022-12-05T07:51:14.869Z,98688.22
2022-12-05T07:53:44.520Z,98701.69
2022-12-05T07:56:16.915Z,98701.53
2022-12-05T07:58:45.596Z,98696.22
2022-12-05T08:01:16.310Z,98691.00
2022-12-05T08:03:46.247Z,98687.06
2022-12-05T08:06:15.947Z,98690.13
2022-12-05T08:08:44.276Z,98694.03
2022-12-05T08:11:15.069Z,98691.63
2022-12-05T08:13:43.652Z,98694.78
2022-12-05T08:16:13.731Z,98695.75
2022-12-05T08:18:42.074Z,98686.38
2022-12-05T08:21:13.386Z,98689.69
2022-12-05T08:23:41.975Z,98688.06
2022-12-05T08:26:12.828Z,98691.84
2022-12-05T08:28:40.758Z,98693.03
2022-12-05T08:31:10.976Z,98686.56
2022-12-05T08:33:39.525Z,98700.56
2022-12-05T08:36:10.063Z,98690.47
2022-12-05T08:38:39.808Z,98706.94
2022-12-05T08:41:13.170Z,98698.25
2022-12-05T08:43:41.352Z,98704.81
2022-12-05T08:46:09.963Z,98697.69
2022-12-05T08:48:38.434Z,98694.53
2022-12-05T08:51:07.118Z,98694.13
2022-12-05T08:53:40.951Z,98695.66
2022-12-05T08:56:13.726Z,98688.22
2022-12-05T08:58:42.353Z,98692.28
2022-12-05T09:01:12.359Z,98694.59
2022-12-05T09:03:46.062Z,98696.16
2022-12-05T09:06:17.864Z,98693.44
2022-12-05T09:08:46.695Z,98693.75
2022-12-05T09:11:18.580Z,98685.00
2022-12-05T09:13:48.123Z,98688.66
2022-12-05T09:16:18.750Z,98687.25
2022-12-05T09:18:47.064Z,98688.13
2022-12-05T09:21:16.751Z,98683.09
2022-12-05T09:23:45.237Z,98682.47
2022-12-05T09:26:16.878Z,98674.16
2022-12-05T09:28:45.324Z,98674.69
2022-12-05T09:31:15.731Z,98676.09
2022-12-05T09:33:43.811Z,98673.69
2022-12-05T09:36:15.622Z,98674.78
2022-12-05T09:38:43.806Z,98668.31
2022-12-05T09:41:44.220Z,98678.19
2022-12-05T09:44:20.749Z,98671.72
2022-12-05T09:46:55.986Z,98666.47
2022-12-05T09:49:25.558Z,98673.78
2022-12-05T09:51:56.457Z,98671.03
2022-12-05T09:54:26.218Z,98662.41
2022-12-05T09:56:55.767Z,98655.06
2022-12-05T09:59:23.743Z,98660.25
2022-12-05T10:01:57.917Z,98652.88
2022-12-05T10:05:00.670Z,98655.41
2022-12-05T10:07:39.012Z,98643.66
2022-12-05T10:10:25.233Z,98655.66
2022-12-05T10:13:09.948Z,98652.53
2022-12-05T10:15:45.139Z,98638.25
2022-12-05T10:18:29.831Z,98638.47
2022-12-05T10:21:01.479Z,98638.19
2022-12-05T10:26:23.040Z,98626.19
2022-12-05T10:28:59.861Z,98621.31
2022-12-05T10:31:31.986Z,98618.78
2022-12-05T10:34:05.741Z,98603.38
2022-12-05T10:36:33.918Z,98623.31
2022-12-05T10:39:03.803Z,98630.16
2022-12-05T10:41:35.480Z,98621.84
2022-12-05T10:44:06.383Z,98608.84
2022-12-05T10:46:34.356Z,98590.47
2022-12-05T10:49:02.560Z,98588.94
2022-12-05T10:51:35.789Z,98591.75
2022-12-05T10:54:17.493Z,98600.09
2022-12-05T10:56:47.543Z,98603.06
2022-12-05T10:59:19.161Z,98599.59
2022-12-05T11:01:51.119Z,98594.59
2022-12-05T11:04:26.587Z,98585.59
2022-12-05T11:06:58.316Z,98586.69
2022-12-05T11:09:28.639Z,98588.97
2022-12-05T11:12:16.842Z,98591.13
2022-12-05T11:14:58.878Z,98588.66
2022-12-05T11:17:30.858Z,98582.66
2022-12-05T11:19:58.875Z,98582.56
2022-12-05T11:22:36.953Z,98577.84
2022-12-05T11:25:25.940Z,98569.72
2022-12-05T11:27:58.384Z,98575.69
2022-12-05T11:30:30.953Z,98568.47
2022-12-05T11:33:19.612Z,98576.56
2022-12-05T11:35:48.053Z,98577.78
2022-12-05T11:38:18.793Z,98565.53
2022-12-05T11:40:54.614Z,98572.09
2022-12-05T11:43:48.033Z,98562.47
2022-12-05T11:46:30.088Z,98559.25
2022-12-05T11:49:13.587Z,98553.16
2022-12-05T11:51:47.139Z,98549.97
2022-12-05T11:55:03.977Z,98550.19
2022-12-05T11:57:36.414Z,98545.91
2022-12-05T12:00:14.273Z,98537.53
2022-12-05T12:03:05.971Z,98542.38
2022-12-05T12:05:39.387Z,98536.22
2022-12-05T12:08:18.064Z,98528.84
2022-12-05T12:10:56.756Z,98525.31
2022-12-05T12:13:36.918Z,98530.06
2022-12-05T12:16:15.735Z,98518.25
2022-12-05T12:19:11.917Z,98519.09
2022-12-05T12:21:53.131Z,98521.41
2022-12-05T12:24:32.979Z,98515.84
2022-12-05T12:27:09.644Z,98515.91
2022-12-05T12:29:53.233Z,98519.25
2022-12-05T12:32:31.215Z,98522.78
2022-12-05T12:35:26.631Z,98521.25
2022-12-05T12:38:08.590Z,98512.38
2022-12-05T12:40:44.904Z,98520.69
2022-12-05T12:43:52.668Z,98523.13
2022-12-05T12:46:30.007Z,98527.78
2022-12-05T12:49:17.767Z,98528.28
2022-12-05T12:51:54.524Z,98524.53
2022-12-05T12:57:46.852Z,98527.66
2022-12-05T13:00:32.267Z,98521.94
2022-12-05T13:03:09.993Z,98530.41
2022-12-05T13:05:43.844Z,98521.84
2022-12-05T13:08:20.835Z,98519.34
2022-12-05T13:10:50.686Z,98524.25
2022-12-05T13:13:22.150Z,98525.56
2022-12-05T13:15:54.462Z,98510.56
2022-12-05T13:18:24.506Z,98509.94
2022-12-05T13:21:00.238Z,98500.50
2022-12-05T13:23:34.036Z,98507.59
2022-12-05T13:26:08.638Z,98497.00
2022-12-05T13:28:42.460Z,98499.03
2022-12-05T13:31:16.738Z,98495.69
2022-12-05T13:33:47.281Z,98495.47
2022-12-05T13:36:35.670Z,98488.75
2022-12-05T13:39:24.681Z,98492.88
2022-12-05T13:42:12.898Z,98491.84
2022-12-05T13:44:44.331Z,98496.38
2022-12-05T13:47:28.465Z,98498.88
2022-12-05T13:50:02.334Z,98508.94
2022-12-05T13:52:32.855Z,98508.25
2022-12-05T13:55:13.947Z,98503.63
2022-12-05T13:57:48.953Z,98499.47
2022-12-05T14:00:38.245Z,98505.72
2022-12-05T14:03:16.327Z,98507.50
2022-12-05T14:05:47.005Z,98506.66
2022-12-05T14:09:03.240Z,98510.81
2022-12-05T14:11:32.874Z,98501.66
2022-12-05T14:14:04.538Z,98498.22
2022-12-05T14:16:45.204Z,98500.13
2022-12-05T14:19:56.433Z,98500.84
2022-12-05T14:22:50.286Z,98504.47
2022-12-05T14:25:58.107Z,98505.25
2022-12-05T14:28:47.400Z,98502.97
2022-12-05T14:31:35.384Z,98512.69
2022-12-05T14:34:16.362Z,98501.66
2022-12-05T14:36:54.909Z,98507.38
2022-12-05T14:39:23.811Z,98506.66
2022-12-05T14:41:58.716Z,98507.31
2022-12-05T14:44:32.275Z,98503.44
2022-12-05T14:47:03.322Z,98502.31
2022-12-05T14:49:53.876Z,98499.16
2022-12-05T14:52:23.662Z,98510.19
2022-12-05T14:54:53.494Z,98510.66
2022-12-05T14:57:23.118Z,98508.66
2022-12-05T14:59:56.683Z,98508.75
2022-12-05T15:02:28.453Z,98500.16
2022-12-05T15:05:01.849Z,98504.56
2022-12-05T15:07:34.757Z,98511.59
2022-12-05T15:10:06.153Z,98505.78
2022-12-05T15:12:41.026Z,98507.09
2022-12-05T15:15:17.579Z,98491.59
2022-12-05T15:17:50.205Z,98496.53
2022-12-05T15:20:26.943Z,98506.06
2022-12-05T15:22:55.271Z,98495.91
2022-12-05T15:25:29.270Z,98499.41
2022-12-05T15:28:00.421Z,98505.63
2022-12-05T15:30:31.820Z,98508.56
2022-12-05T15:33:00.557Z,98503.44
2022-12-05T15:35:33.058Z,98517.78
2022-12-05T15:38:09.455Z,98503.56
2022-12-05T15:40:40.687Z,98509.00
2022-12-05T15:43:28.836Z,98505.34
2022-12-05T15:46:26.416Z,98506.56
2022-12-05T15:49:00.602Z,98505.31
2022-12-05T15:51:33.269Z,98495.75
2022-12-05T15:54:08.973Z,98503.72
2022-12-05T15:56:43.223Z,98506.03
2022-12-05T15:59:18.443Z,98509.53
2022-12-05T16:01:51.934Z,98494.25
2022-12-05T16:04:29.196Z,98493.97
2022-12-05T16:07:01.486Z,98492.09
2022-12-05T16:09:33.531Z,98495.06
2022-12-05T16:12:03.777Z,98486.13
2022-12-05T16:17:24.935Z,98490.53
2022-12-05T16:19:53.070Z,98489.28
2022-12-05T16:22:25.011Z,98494.66
2022-12-05T16:24:58.191Z,98481.63
2022-12-05T16:27:27.753Z,98492.88
2022-12-05T16:30:11.097Z,98498.13
2022-12-05T16:32:41.331Z,98495.81
2022-12-05T16:35:31.838Z,98495.94
2022-12-05T16:38:15.631Z,98493.78
2022-12-05T16:40:53.946Z,98490.91
2022-12-05T16:43:27.174Z,98484.75
2022-12-05T16:45:58.666Z,98487.88
2022-12-05T16:48:29.877Z,98482.03
2022-12-05T16:51:19.998Z,98493.47
2022-12-05T16:53:50.516Z,98490.09
2022-12-05T16:56:22.196Z,98485.63
2022-12-05T16:58:50.203Z,98491.47
2022-12-05T17:01:21.344Z,98496.88
2022-12-05T17:03:51.148Z,98490.50
2022-12-05T17:06:21.390Z,98485.78
2022-12-05T17:08:49.313Z,98491.31
2022-12-05T17:11:21.356Z,98488.94
2022-12-05T17:13:50.680Z,98488.22
2022-12-05T17:16:20.774Z,98485.47
2022-12-05T17:18:51.681Z,98490.72
2022-12-05T17:21:22.473Z,98491.44
2022-12-05T17:23:50.728Z,98476.03
2022-12-05T17:26:20.519Z,98481.00
2022-12-05T17:28:49.212Z,98474.53
2022-12-05T17:31:18.125Z,98474.84
2022-12-05T17:33:46.872Z,98469.69
2022-12-05T17:36:17.427Z,98483.25
2022-12-05T17:38:46.102Z,98477.16
2022-12-05T17:41:17.355Z,98476.88
2022-12-05T17:43:46.030Z,98478.06
2022-12-05T17:46:16.869Z,98483.13
2022-12-05T17:48:44.906Z,98482.50
2022-12-05T17:51:14.491Z,98486.31
2022-12-05T17:53:44.634Z,98489.84
2022-12-05T17:56:14.239Z,98492.91
2022-12-05T17:58:43.024Z,98479.91
2022-12-05T18:01:15.905Z,98494.69
2022-12-05T18:03:44.206Z,98495.16
2022-12-05T18:06:12.346Z,98496.09
2022-12-05T18:08:42.158Z,98497.28
2022-12-05T18:11:12.253Z,98496.59
2022-12-05T18:13:40.304Z,98502.72
2022-12-05T18:16:08.950Z,98494.03
2022-12-05T18:18:37.054Z,98504.13
2022-12-05T18:21:06.976Z,98499.88
2022-12-05T18:23:36.842Z,98496.53
2022-12-05T18:26:06.441Z,98499.50
2022-12-05T18:28:37.583Z,98493.47
2022-12-05T18:31:11.019Z,98485.69
2022-12-05T18:33:39.216Z,98490.44
2022-12-05T18:36:09.158Z,98491.94
2022-12-05T18:38:37.368Z,98487.81
2022-12-05T18:41:06.587Z,98498.19
2022-12-05T18:43:36.503Z,98492.09
2022-12-05T18:46:05.823Z,98500.75
2022-12-05T18:48:39.988Z,98497.25
2022-12-05T18:51:12.072Z,98495.72
2022-12-05T18:53:40.423Z,98490.88
2022-12-05T18:56:22.145Z,98494.22
2022-12-05T18:58:56.475Z,98495.16
2022-12-05T19:01:24.719Z,98484.94
2022-12-05T19:03:52.862Z,98499.47
2022-12-05T19:06:23.127Z,98500.38
2022-12-05T19:08:54.632Z,98494.56
2022-12-05T19:11:23.144Z,98498.38
2022-12-05T19:13:51.253Z,98490.44
2022-12-05T19:16:20.659Z,98486.94
2022-12-05T19:18:48.733Z,98491.41
2022-12-05T19:21:16.645Z,98496.19
2022-12-05T19:23:44.608Z,98490.44
2022-12-05T19:26:12.541Z,98494.88
2022-12-05T19:28:40.687Z,98496.41
2022-12-05T19:31:10.649Z,98500.84
2022-12-05T19:33:41.397Z,98501.91
2022-12-05T19:36:11.888Z,98503.69
2022-12-05T19:38:41.752Z,98500.97
2022-12-05T19:41:11.888Z,98504.94
2022-12-05T19:43:40.476Z,98493.97
2022-12-05T19:46:10.026Z,98492.75
2022-12-05T19:48:39.519Z,98498.22
2022-12-05T19:51:07.945Z,98495.03
2022-12-05T19:53:38.048Z,98485.69
2022-12-05T19:56:08.889Z,98490.22
2022-12-05T19:58:37.493Z,98492.88
2022-12-05T20:01:10.388Z,98496.25
2022-12-05T20:03:40.200Z,98495.28
2022-12-05T20:06:09.317Z,98498.44
2022-12-05T20:08:38.160Z,98498.91
2022-12-05T20:11:07.677Z,98489.38
2022-12-05T20:13:51.858Z,98490.09
2022-12-05T20:16:21.827Z,98493.59
2022-12-05T20:18:51.565Z,98487.97
2022-12-05T20:21:22.100Z,98496.66
2022-12-05T20:23:50.210Z,98493.41
2022-12-05T20:26:20.822Z,98485.03
2022-12-05T20:28:48.895Z,98488.72
2022-12-05T20:31:18.898Z,98486.75
2022-12-05T20:33:47.395Z,98480.34
2022-12-05T20:36:19.147Z,98479.22
2022-12-05T20:38:48.094Z,98486.09
2022-12-05T20:41:17.954Z,98484.63
2022-12-05T20:43:48.444Z,98487.47
2022-12-05T20:46:18.848Z,98486.16
2022-12-05T20:48:47.966Z,98485.69
2022-12-05T20:51:18.893Z,98501.91
2022-12-05T20:53:47.892Z,98492.19
2022-12-05T20:56:17.562Z,98486.28
2022-12-05T20:58:46.711Z,98478.22
2022-12-05T21:01:16.409Z,98476.53
2022-12-05T21:03:45.715Z,98478.66
2022-12-05T21:06:15.674Z,98479.06
2022-12-05T21:08:45.400Z,98478.78
2022-12-05T21:11:14.648Z,98478.16
2022-12-05T21:13:42.987Z,98474.69
2022-12-05T21:16:13.203Z,98475.78
2022-12-05T21:18:42.063Z,98467.84
2022-12-05T21:21:14.698Z,98469.66
2022-12-05T21:23:44.347Z,98469.50
2022-12-05T21:26:15.090Z,98465.25
2022-12-05T21:28:44.152Z,98479.63
2022-12-05T21:31:14.315Z,98478.22
2022-12-05T21:33:43.723Z,98473.97
2022-12-05T21:36:11.777Z,98475.19
2022-12-05T21:38:39.689Z,98468.91
2022-12-05T21:41:09.139Z,98461.91
2022-12-05T21:43:37.886Z,98469.06
2022-12-05T21:46:06.550Z,98459.72
2022-12-05T21:48:35.603Z,98458.88
2022-12-05T21:51:10.512Z,98464.09
2022-12-05T21:53:38.520Z,98462.06
2022-12-05T21:56:10.969Z,98461.69
2022-12-05T21:58:42.358Z,98465.19
2022-12-05T22:01:11.345Z,98459.13
2022-12-05T22:03:39.642Z,98466.75
2022-12-05T22:06:09.659Z,98459.91
2022-12-05T22:08:39.140Z,98448.28
2022-12-05T22:11:10.401Z,98444.16
2022-12-05T22:13:38.653Z,98448.00
2022-12-05T22:16:07.999Z,98444.94
2022-12-05T22:18:36.222Z,98442.00
2022-12-05T22:21:06.630Z,98445.63
2022-12-05T22:23:36.136Z,98433.22
2022-12-05T22:26:06.035Z,98427.69
2022-12-05T22:28:36.113Z,98428.75
2022-12-05T22:31:06.296Z,98426.31
2022-12-05T22:33:36.730Z,98437.75
2022-12-05T22:36:06.936Z,98432.56
2022-12-05T22:38:36.955Z,98434.09
2022-12-05T22:41:07.316Z,98435.19
2022-12-05T22:43:38.109Z,98426.00
2022-12-05T22:46:07.909Z,98424.19
2022-12-05T22:48:36.485Z,98422.78
2022-12-05T22:51:05.723Z,98426.16
2022-12-05T22:53:34.065Z,98423.72
2022-12-05T22:56:04.392Z,98422.97
2022-12-05T22:58:32.947Z,98420.97
2022-12-05T23:01:11.331Z,98429.97
2022-12-05T23:03:39.533Z,98420.03
2022-12-05T23:06:11.802Z,98426.94
2022-12-05T23:08:41.225Z,98421.28
2022-12-05T23:11:10.180Z,98424.03
2022-12-05T23:13:39.446Z,98416.84
2022-12-05T23:16:09.222Z,98403.56
2022-12-05T23:18:46.911Z,98408.59
2022-12-05T23:21:20.154Z,98397.00
2022-12-05T23:23:49.303Z,98397.16
2022-12-05T23:26:18.663Z,98391.34
2022-12-05T23:28:46.862Z,98395.31
2022-12-05T23:31:15.857Z,98386.63
2022-12-05T23:33:47.591Z,98383.56
2022-12-05T23:36:17.486Z,98375.19
2022-12-05T23:38:45.467Z,98381.56
2022-12-05T23:41:15.225Z,98379.75
2022-12-05T23:43:44.192Z,98380.22
2022-12-05T23:46:14.055Z,98381.56
2022-12-05T23:48:42.522Z,98376.06
2022-12-05T23:51:13.554Z,98376.22
2022-12-05T23:53:43.556Z,98367.53
2022-12-05T23:56:13.255Z,98376.81
2022-12-05T23:58:41.867Z,98375.16
